Time;durP1;ratioP1;P1;durP2;ratioP2;P2;SDS_P1;SDS_P2;PMS_P1;PMS_P2;Temp;Humidity;BMP_temperature;BMP_pressure;BME280_temperature;BME280_humidity;BME280_pressure;Samples;Min_cycle;Max_cycle;Signal;HPM_P1;HPM_P2
2022/11/20 00:01:31;;;;;;;5.03;2.90;;;;;;;;;;4994089;28;20034;-80
2022/11/20 00:03:58;;;;;;;5.85;2.53;;;;;;;;;;4994179;28;20497;-80
2022/11/20 00:06:24;;;;;;;7.53;2.63;;;;;;;;;;4993870;28;20030;-79
2022/11/20 00:08:50;;;;;;;4.88;2.95;;;;;;;;;;4993937;28;20089;-80
2022/11/20 00:11:18;;;;;;;7.90;2.80;;;;;;;;;;4993625;28;20126;-79
2022/11/20 00:13:44;;;;;;;5.40;2.83;;;;;;;;;;4993943;28;20053;-80
2022/11/20 00:16:11;;;;;;;4.90;2.55;;;;;;;;;;4993776;28;20030;-80
2022/11/20 00:18:37;;;;;;;5.50;2.80;;;;;;;;;;4993780;28;20031;-80
2022/11/20 00:21:05;;;;;;;4.95;2.80;;;;;;;;;;4993570;28;20050;-80
2022/11/20 00:23:31;;;;;;;4.75;2.28;;;;;;;;;;4993601;28;20036;-79
2022/11/20 00:26:01;;;;;;;6.97;2.95;;;;;;;;;;4993617;28;20482;-80
2022/11/20 00:28:27;;;;;;;6.45;2.65;;;;;;;;;;4993498;28;20045;-79
2022/11/20 00:31:00;;;;;;;5.97;2.67;;;;;;;;;;4993542;28;20069;-79
2022/11/20 00:33:26;;;;;;;5.85;2.70;;;;;;;;;;4993637;28;20023;-79
2022/11/20 00:35:52;;;;;;;3.42;2.25;;;;;;;;;;4993560;28;20036;-79
2022/11/20 00:38:18;;;;;;;7.35;3.10;;;;;;;;;;4993283;28;20022;-79
2022/11/20 00:40:44;;;;;;;5.03;2.22;;;;;;;;;;4993438;28;20022;-79
2022/11/20 00:43:10;;;;;;;5.40;2.60;;;;;;;;;;4993274;28;20026;-80
2022/11/20 00:45:36;;;;;;;6.13;3.08;;;;;;;;;;4993278;28;20030;-79
2022/11/20 00:48:03;;;;;;;5.13;2.90;;;;;;;;;;4993259;28;20418;-80
2022/11/20 00:50:29;;;;;;;6.45;2.40;;;;;;;;;;4993181;28;20018;-79
2022/11/20 00:52:55;;;;;;;5.57;2.42;;;;;;;;;;4993161;28;20022;-79
2022/11/20 00:55:21;;;;;;;7.82;2.92;;;;;;;;;;4992383;28;20022;-80
2022/11/20 00:57:47;;;;;;;6.72;2.83;;;;;;;;;;4993203;28;20030;-79
2022/11/20 01:00:13;;;;;;;4.50;3.17;;;;;;;;;;4992852;28;20030;-79
2022/11/20 01:02:39;;;;;;;6.10;2.78;;;;;;;;;;4993028;28;20109;-79
2022/11/20 01:05:05;;;;;;;7.13;2.53;;;;;;;;;;4993149;28;20026;-79
2022/11/20 01:07:32;;;;;;;4.10;1.90;;;;;;;;;;4992757;28;20030;-79
2022/11/20 01:09:58;;;;;;;5.53;2.47;;;;;;;;;;4993043;28;20030;-79
2022/11/20 01:12:24;;;;;;;6.43;2.92;;;;;;;;;;4992712;28;20038;-80
2022/11/20 01:14:50;;;;;;;6.90;2.83;;;;;;;;;;4993038;28;20101;-79
2022/11/20 01:17:16;;;;;;;3.53;2.08;;;;;;;;;;4992927;28;20027;-79
2022/11/20 01:19:42;;;;;;;5.22;2.45;;;;;;;;;;4992758;28;20053;-80
2022/11/20 01:22:08;;;;;;;5.55;2.58;;;;;;;;;;4992855;28;20065;-79
2022/11/20 01:24:34;;;;;;;4.88;2.17;;;;;;;;;;4992719;28;20026;-80
2022/11/20 01:27:01;;;;;;;5.72;2.65;;;;;;;;;;4993011;28;20070;-79
2022/11/20 01:29:27;;;;;;;7.22;2.75;;;;;;;;;;4992648;28;20050;-79
2022/11/20 01:31:53;;;;;;;5.57;2.38;;;;;;;;;;4992683;28;20486;-79
2022/11/20 01:34:20;;;;;;;4.43;2.50;;;;;;;;;;4992736;28;20022;-80
2022/11/20 01:36:46;;;;;;;5.05;2.63;;;;;;;;;;4992586;28;20097;-79
2022/11/20 01:39:14;;;;;;;5.35;2.60;;;;;;;;;;4992738;28;20023;-79
2022/11/20 01:45:01;;;;;;;5.57;2.72;;;;;;;;;;4992690;28;20046;-79
2022/11/20 01:47:39;;;;;;;3.85;2.38;;;;;;;;;;4933046;29;20510;-79
2022/11/20 01:50:10;;;;;;;6.50;2.63;;;;;;;;;;4932840;29;20531;-80
2022/11/20 01:53:00;;;;;;;5.93;2.03;;;;;;;;;;4916708;29;20064;-79
2022/11/20 01:55:28;;;;;;;7.35;2.70;;;;;;;;;;4953117;28;20026;-79
2022/11/20 01:57:54;;;;;;;6.03;2.35;;;;;;;;;;4992451;28;20027;-79
2022/11/20 02:00:21;;;;;;;6.20;2.13;;;;;;;;;;4992327;28;20026;-79
2022/11/20 02:03:07;;;;;;;4.85;2.25;;;;;;;;;;4992463;28;20791;-79
2022/11/20 02:05:39;;;;;;;5.18;2.58;;;;;;;;;;4992602;28;20034;-79
2022/11/20 02:08:06;;;;;;;4.45;1.75;;;;;;;;;;4994928;28;20101;-79
2022/11/20 02:10:33;;;;;;;7.10;2.65;;;;;;;;;;4996061;28;20113;-79
2022/11/20 02:15:44;;;;;;;5.15;2.13;;;;;;;;;;4996215;28;20065;-79
2022/11/20 02:18:11;;;;;;;7.25;2.13;;;;;;;;;;4996078;28;20034;-79
2022/11/20 02:20:37;;;;;;;5.15;1.85;;;;;;;;;;4995761;28;20050;-79
2022/11/20 02:23:05;;;;;;;7.15;2.08;;;;;;;;;;4996012;28;20058;-79
2022/11/20 02:25:33;;;;;;;6.97;2.35;;;;;;;;;;4995876;28;20030;-79
2022/11/20 02:27:59;;;;;;;3.05;1.73;;;;;;;;;;4995740;28;20105;-79
2022/11/20 02:30:25;;;;;;;3.15;1.77;;;;;;;;;;4995770;28;20382;-79
2022/11/20 02:32:51;;;;;;;4.60;2.40;;;;;;;;;;4995514;28;20037;-79
2022/11/20 02:35:20;;;;;;;3.53;1.88;;;;;;;;;;4995599;28;20367;-79
2022/11/20 02:37:51;;;;;;;4.60;2.00;;;;;;;;;;4995306;28;20022;-79
2022/11/20 02:40:17;;;;;;;4.68;1.98;;;;;;;;;;4995643;28;20053;-79
2022/11/20 02:42:43;;;;;;;4.05;2.13;;;;;;;;;;4995339;28;20030;-79
2022/11/20 02:45:10;;;;;;;4.72;2.28;;;;;;;;;;4995631;28;20030;-79
2022/11/20 02:47:36;;;;;;;4.28;1.40;;;;;;;;;;4995343;28;20030;-79
2022/11/20 02:50:02;;;;;;;4.30;1.40;;;;;;;;;;4995323;28;20050;-79
2022/11/20 02:52:28;;;;;;;3.88;1.60;;;;;;;;;;4995374;28;20022;-79
2022/11/20 02:54:54;;;;;;;2.30;1.30;;;;;;;;;;4995099;28;20089;-79
2022/11/20 02:57:20;;;;;;;6.15;2.13;;;;;;;;;;4995221;28;20106;-79
2022/11/20 02:59:46;;;;;;;3.35;1.70;;;;;;;;;;4995104;28;20038;-79
2022/11/20 03:02:12;;;;;;;3.30;1.60;;;;;;;;;;4995175;28;20074;-79
2022/11/20 03:04:38;;;;;;;4.53;1.88;;;;;;;;;;4995274;28;20057;-80
2022/11/20 03:07:04;;;;;;;4.13;1.67;;;;;;;;;;4995018;28;20428;-80
2022/11/20 03:09:30;;;;;;;2.92;1.30;;;;;;;;;;4995280;28;20027;-79
2022/11/20 03:11:57;;;;;;;5.18;1.75;;;;;;;;;;4994809;28;20034;-79
2022/11/20 03:14:23;;;;;;;4.75;1.83;;;;;;;;;;4995083;28;20074;-80
2022/11/20 03:16:49;;;;;;;5.88;1.50;;;;;;;;;;4994899;28;20037;-79
2022/11/20 03:19:15;;;;;;;4.68;1.73;;;;;;;;;;4994258;28;20048;-79
2022/11/20 03:21:41;;;;;;;3.05;1.20;;;;;;;;;;4994827;28;20077;-79
2022/11/20 03:24:07;;;;;;;2.95;1.05;;;;;;;;;;4994632;28;20026;-79
2022/11/20 03:26:34;;;;;;;3.25;1.20;;;;;;;;;;4994845;28;20036;-79
2022/11/20 03:29:01;;;;;;;4.38;1.65;;;;;;;;;;4994529;28;20027;-79
2022/11/20 03:31:31;;;;;;;4.32;1.70;;;;;;;;;;4994665;28;20096;-79
2022/11/20 03:33:58;;;;;;;4.60;1.45;;;;;;;;;;4994340;28;20569;-79
2022/11/20 03:36:25;;;;;;;4.43;1.60;;;;;;;;;;4994714;28;20026;-79
2022/11/20 03:38:51;;;;;;;4.57;1.73;;;;;;;;;;4994544;28;20050;-79
2022/11/20 03:41:21;;;;;;;5.00;1.60;;;;;;;;;;4994683;28;20026;-79
2022/11/20 03:43:51;;;;;;;3.90;1.77;;;;;;;;;;4994351;28;20424;-79
2022/11/20 03:46:17;;;;;;;3.28;1.45;;;;;;;;;;4994352;28;20040;-79
2022/11/20 03:48:43;;;;;;;3.65;1.40;;;;;;;;;;4994104;28;20492;-79
2022/11/20 03:51:11;;;;;;;4.20;1.85;;;;;;;;;;4994211;28;20088;-80
2022/11/20 03:53:37;;;;;;;2.70;1.20;;;;;;;;;;4994396;28;20029;-79
2022/11/20 03:56:04;;;;;;;5.38;1.63;;;;;;;;;;4993950;28;20030;-79
2022/11/20 03:58:30;;;;;;;4.38;1.88;;;;;;;;;;4994153;28;20033;-79
2022/11/20 04:00:56;;;;;;;3.17;1.40;;;;;;;;;;4993928;28;20397;-79
2022/11/20 04:03:22;;;;;;;6.68;2.15;;;;;;;;;;4994158;28;20056;-79
2022/11/20 04:05:48;;;;;;;3.42;1.55;;;;;;;;;;4994009;28;20030;-79
2022/11/20 04:08:14;;;;;;;3.92;1.63;;;;;;;;;;4993935;28;20027;-79
2022/11/20 04:10:40;;;;;;;3.22;1.50;;;;;;;;;;4993950;28;20429;-79
2022/11/20 04:13:06;;;;;;;2.58;1.63;;;;;;;;;;4993623;28;20052;-79
2022/11/20 04:15:32;;;;;;;3.13;1.40;;;;;;;;;;4993933;28;20030;-79
2022/11/20 04:17:58;;;;;;;6.10;2.15;;;;;;;;;;4993685;28;20030;-80
2022/11/20 04:20:24;;;;;;;4.40;1.30;;;;;;;;;;4993623;28;20054;-79
2022/11/20 04:22:54;;;;;;;4.55;1.40;;;;;;;;;;4993875;28;20026;-79
2022/11/20 04:25:20;;;;;;;4.43;1.35;;;;;;;;;;4993683;28;20561;-79
2022/11/20 04:27:46;;;;;;;3.00;1.42;;;;;;;;;;4993804;28;20046;-79
2022/11/20 04:30:12;;;;;;;4.47;1.63;;;;;;;;;;4993380;28;20088;-79
2022/11/20 04:32:38;;;;;;;3.90;1.50;;;;;;;;;;4993549;28;20041;-79
2022/11/20 04:35:05;;;;;;;4.15;1.60;;;;;;;;;;4993332;28;20077;-79
2022/11/20 04:37:31;;;;;;;4.35;1.27;;;;;;;;;;4993737;28;20027;-79
2022/11/20 04:39:57;;;;;;;6.32;1.73;;;;;;;;;;4993371;28;20133;-79
2022/11/20 04:42:29;;;;;;;5.15;1.77;;;;;;;;;;4993421;28;20026;-79
2022/11/20 04:44:55;;;;;;;7.68;1.85;;;;;;;;;;4993318;28;20126;-79
2022/11/20 04:47:22;;;;;;;5.95;2.22;;;;;;;;;;4993248;28;20026;-79
2022/11/20 04:49:48;;;;;;;4.18;2.08;;;;;;;;;;4993502;28;20482;-80
2022/11/20 04:52:14;;;;;;;5.90;1.90;;;;;;;;;;4992879;28;20031;-80
2022/11/20 04:54:40;;;;;;;4.30;1.80;;;;;;;;;;4984119;28;20054;-79
2022/11/20 04:57:06;;;;;;;4.22;1.60;;;;;;;;;;4973726;28;20105;-80
2022/11/20 04:59:32;;;;;;;3.85;1.48;;;;;;;;;;4986309;28;20421;-80
2022/11/20 05:01:58;;;;;;;4.72;1.50;;;;;;;;;;4989721;28;20030;-80
2022/11/20 05:04:24;;;;;;;4.68;2.17;;;;;;;;;;4990313;28;20477;-80
2022/11/20 05:06:51;;;;;;;6.70;2.10;;;;;;;;;;4993224;28;20088;-80
2022/11/20 05:09:17;;;;;;;5.10;1.63;;;;;;;;;;4992833;28;20461;-80
2022/11/20 05:11:43;;;;;;;5.47;2.83;;;;;;;;;;4992955;28;20456;-79
2022/11/20 05:14:09;;;;;;;4.38;2.30;;;;;;;;;;4991654;28;20042;-79
2022/11/20 05:16:35;;;;;;;12.45;7.50;;;;;;;;;;4990869;28;20106;-79
2022/11/20 05:19:02;;;;;;;9.07;5.18;;;;;;;;;;4993042;28;20026;-79
2022/11/20 05:21:30;;;;;;;10.15;6.75;;;;;;;;;;4992693;28;20129;-79
2022/11/20 05:23:56;;;;;;;31.55;24.67;;;;;;;;;;4981983;28;20026;-79
2022/11/20 05:26:22;;;;;;;33.88;24.77;;;;;;;;;;4984098;28;20050;-79
2022/11/20 05:28:49;;;;;;;4.07;2.60;;;;;;;;;;4982769;28;20058;-79
2022/11/20 05:31:16;;;;;;;4.05;1.73;;;;;;;;;;4982190;28;20109;-79
2022/11/20 05:33:44;;;;;;;2.60;1.25;;;;;;;;;;4983601;28;20080;-79
2022/11/20 05:36:11;;;;;;;6.60;1.35;;;;;;;;;;4981834;28;20022;-80
2022/11/20 05:38:37;;;;;;;4.32;1.70;;;;;;;;;;4981986;28;20069;-79
2022/11/20 05:41:07;;;;;;;5.32;2.00;;;;;;;;;;4978251;28;20042;-79
2022/11/20 05:43:34;;;;;;;4.05;1.50;;;;;;;;;;4976968;28;20065;-79
2022/11/20 05:46:01;;;;;;;4.50;1.30;;;;;;;;;;4977305;28;20023;-79
2022/11/20 05:48:27;;;;;;;5.28;1.70;;;;;;;;;;4976889;28;20105;-79
2022/11/20 05:50:53;;;;;;;3.72;1.70;;;;;;;;;;4976972;28;20498;-79
2022/11/20 05:53:19;;;;;;;4.78;1.60;;;;;;;;;;4976918;28;20033;-79
2022/11/20 05:55:45;;;;;;;2.85;1.30;;;;;;;;;;4977019;28;20040;-80
2022/11/20 05:58:11;;;;;;;4.45;1.60;;;;;;;;;;4977109;28;20030;-80
2022/11/20 06:00:37;;;;;;;3.92;1.42;;;;;;;;;;4976972;28;20503;-80
2022/11/20 06:03:03;;;;;;;6.03;1.83;;;;;;;;;;4977008;28;20098;-80
2022/11/20 06:05:29;;;;;;;5.38;2.42;;;;;;;;;;4976637;28;20029;-80
2022/11/20 06:07:55;;;;;;;4.85;2.10;;;;;;;;;;4976829;28;20034;-80
2022/11/20 06:10:21;;;;;;;5.20;1.95;;;;;;;;;;4988468;28;20026;-80
2022/11/20 06:12:47;;;;;;;7.72;2.33;;;;;;;;;;4978645;28;20034;-80
2022/11/20 06:15:13;;;;;;;4.43;1.90;;;;;;;;;;4996068;28;20420;-80
2022/11/20 06:17:40;;;;;;;4.85;2.08;;;;;;;;;;4995824;28;20061;-80
2022/11/20 06:20:06;;;;;;;4.93;1.73;;;;;;;;;;4995867;28;20142;-79
2022/11/20 06:22:33;;;;;;;3.78;1.55;;;;;;;;;;4995695;28;20032;-80
2022/11/20 06:24:59;;;;;;;3.95;1.40;;;;;;;;;;4995655;28;20122;-79
2022/11/20 06:27:25;;;;;;;4.60;1.85;;;;;;;;;;4995698;28;20053;-79
2022/11/20 06:29:51;;;;;;;4.03;1.38;;;;;;;;;;4995917;28;20102;-79
2022/11/20 06:32:17;;;;;;;6.45;2.47;;;;;;;;;;4995777;28;20030;-80
2022/11/20 06:34:43;;;;;;;5.20;1.60;;;;;;;;;;4995250;28;20482;-79
2022/11/20 06:37:09;;;;;;;4.70;2.30;;;;;;;;;;4995535;28;20030;-80
2022/11/20 06:39:35;;;;;;;5.28;2.05;;;;;;;;;;4977798;28;20394;-79
2022/11/20 06:42:02;;;;;;;4.78;2.38;;;;;;;;;;4995683;28;20038;-80
2022/11/20 06:44:28;;;;;;;6.18;2.42;;;;;;;;;;4995339;28;20117;-79
2022/11/20 06:46:54;;;;;;;4.93;2.58;;;;;;;;;;4995393;28;20387;-79
2022/11/20 06:49:20;;;;;;;3.58;2.00;;;;;;;;;;4995389;28;20039;-79
2022/11/20 06:51:46;;;;;;;5.18;2.97;;;;;;;;;;4995122;28;20026;-79
2022/11/20 06:54:12;;;;;;;5.80;2.13;;;;;;;;;;4976595;28;20318;-79
2022/11/20 06:56:38;;;;;;;4.57;1.75;;;;;;;;;;4995112;28;20153;-79
2022/11/20 06:59:05;;;;;;;4.05;1.70;;;;;;;;;;4995322;28;20023;-80
2022/11/20 07:01:31;;;;;;;4.45;1.83;;;;;;;;;;4977608;28;20052;-79
2022/11/20 07:03:57;;;;;;;4.50;1.90;;;;;;;;;;4994906;28;20033;-79
2022/11/20 07:06:24;;;;;;;5.60;2.30;;;;;;;;;;4995073;28;20069;-79
2022/11/20 07:08:52;;;;;;;10.48;7.53;;;;;;;;;;4994934;28;20023;-80
2022/11/20 07:11:18;;;;;;;6.88;3.40;;;;;;;;;;4994933;28;20077;-79
2022/11/20 07:13:44;;;;;;;6.30;1.58;;;;;;;;;;4994868;28;20023;-79
2022/11/20 07:16:10;;;;;;;4.20;2.50;;;;;;;;;;4994835;28;20036;-79
2022/11/20 07:18:36;;;;;;;5.97;2.30;;;;;;;;;;4994429;28;20034;-79
2022/11/20 07:21:03;;;;;;;5.68;2.40;;;;;;;;;;4994586;28;20062;-80
2022/11/20 07:23:29;;;;;;;6.30;2.40;;;;;;;;;;4994822;28;20031;-79
2022/11/20 07:25:55;;;;;;;3.78;1.98;;;;;;;;;;4994598;28;20037;-79
2022/11/20 07:28:21;;;;;;;4.75;1.83;;;;;;;;;;4994788;28;20052;-80
2022/11/20 07:30:51;;;;;;;6.25;2.17;;;;;;;;;;4994497;28;20030;-80
2022/11/20 07:33:18;;;;;;;5.00;2.25;;;;;;;;;;4994522;28;20097;-80
2022/11/20 07:35:44;;;;;;;7.00;2.90;;;;;;;;;;4994476;28;20031;-80
2022/11/20 07:38:10;;;;;;;5.45;2.17;;;;;;;;;;4998579;28;20022;-80
2022/11/20 07:40:37;;;;;;;7.45;2.67;;;;;;;;;;5013693;28;20026;-80
2022/11/20 07:43:03;;;;;;;4.63;2.63;;;;;;;;;;5013957;28;20037;-79
2022/11/20 07:45:29;;;;;;;7.60;2.53;;;;;;;;;;5013936;28;20034;-80
2022/11/20 07:47:55;;;;;;;5.93;3.20;;;;;;;;;;5013641;28;20026;-79
2022/11/20 07:50:21;;;;;;;5.30;2.10;;;;;;;;;;5013818;28;20030;-80
2022/11/20 07:52:47;;;;;;;7.10;3.53;;;;;;;;;;5013663;28;20034;-79
2022/11/20 07:55:13;;;;;;;10.93;4.25;;;;;;;;;;5013773;28;20030;-80
2022/11/20 07:57:39;;;;;;;6.13;2.67;;;;;;;;;;5013873;28;20037;-79
2022/11/20 08:00:08;;;;;;;7.40;3.78;;;;;;;;;;5003523;28;20030;-79
2022/11/20 08:02:34;;;;;;;17.00;15.02;;;;;;;;;;4989312;28;20109;-80
2022/11/20 08:05:00;;;;;;;13.85;11.25;;;;;;;;;;4999539;28;20026;-80
2022/11/20 08:07:26;;;;;;;11.88;8.95;;;;;;;;;;5003202;28;20033;-80
2022/11/20 08:09:53;;;;;;;15.00;10.88;;;;;;;;;;5004757;28;20046;-80
2022/11/20 08:15:07;;;;;;;8.25;5.47;;;;;;;;;;4992076;28;20057;-81
2022/11/20 08:17:33;;;;;;;4.78;4.00;;;;;;;;;;4957109;28;20034;-80
2022/11/20 08:19:59;;;;;;;5.70;3.30;;;;;;;;;;4994816;28;20053;-80
2022/11/20 08:22:26;;;;;;;7.15;2.97;;;;;;;;;;4989144;28;20125;-80
2022/11/20 08:24:52;;;;;;;25.92;21.67;;;;;;;;;;4975280;28;20109;-80
2022/11/20 08:27:18;;;;;;;15.32;9.02;;;;;;;;;;4993678;28;20094;-80
2022/11/20 08:29:44;;;;;;;8.57;4.65;;;;;;;;;;4999260;28;20413;-80
2022/11/20 08:32:10;;;;;;;5.80;3.70;;;;;;;;;;5001716;28;20041;-80
2022/11/20 08:34:36;;;;;;;7.18;3.90;;;;;;;;;;5004437;28;20034;-80
2022/11/20 08:37:03;;;;;;;7.55;3.60;;;;;;;;;;5002038;28;20099;-81
2022/11/20 08:39:29;;;;;;;11.38;4.47;;;;;;;;;;5006315;28;20405;-80
2022/11/20 08:41:55;;;;;;;7.57;3.50;;;;;;;;;;5000161;28;20095;-80
2022/11/20 08:44:21;;;;;;;8.13;3.65;;;;;;;;;;4995954;28;20386;-79
2022/11/20 08:46:47;;;;;;;9.85;3.10;;;;;;;;;;5001487;28;20033;-79
2022/11/20 08:49:14;;;;;;;16.58;11.25;;;;;;;;;;4996464;28;20018;-80
2022/11/20 08:51:40;;;;;;;8.48;4.45;;;;;;;;;;4993320;28;20042;-79
2022/11/20 08:54:06;;;;;;;6.68;2.88;;;;;;;;;;4993115;28;20038;-79
2022/11/20 08:56:32;;;;;;;10.10;4.13;;;;;;;;;;4993138;28;20442;-79
2022/11/20 08:58:59;;;;;;;5.97;2.95;;;;;;;;;;4992987;28;20031;-79
2022/11/20 09:01:25;;;;;;;8.05;3.20;;;;;;;;;;4993125;28;20560;-80
2022/11/20 09:03:52;;;;;;;10.32;7.47;;;;;;;;;;4975776;28;20030;-80
2022/11/20 09:06:18;;;;;;;8.23;3.92;;;;;;;;;;4993271;28;20054;-80
2022/11/20 09:08:44;;;;;;;10.32;5.07;;;;;;;;;;4993178;28;20028;-80
2022/11/20 09:11:11;;;;;;;10.48;4.43;;;;;;;;;;4992925;28;20030;-79
2022/11/20 09:13:37;;;;;;;9.27;4.13;;;;;;;;;;4993208;28;20085;-80
2022/11/20 09:16:05;;;;;;;7.07;2.92;;;;;;;;;;4992473;28;20031;-80
2022/11/20 09:18:32;;;;;;;9.50;2.95;;;;;;;;;;4992838;28;20496;-79
2022/11/20 09:21:01;;;;;;;8.52;3.90;;;;;;;;;;4992057;28;20066;-79
2022/11/20 09:23:28;;;;;;;11.52;3.45;;;;;;;;;;4989517;28;20057;-80
2022/11/20 09:25:56;;;;;;;9.90;4.03;;;;;;;;;;4985284;28;20034;-79
2022/11/20 09:28:22;;;;;;;11.30;3.78;;;;;;;;;;4983749;28;20029;-79
2022/11/20 09:30:48;;;;;;;7.68;2.88;;;;;;;;;;4982286;28;20026;-79
2022/11/20 09:33:14;;;;;;;4.82;2.80;;;;;;;;;;4982179;28;20022;-80
2022/11/20 09:35:41;;;;;;;8.60;3.60;;;;;;;;;;4983595;28;20369;-80
2022/11/20 09:38:07;;;;;;;8.90;3.63;;;;;;;;;;4981709;28;20023;-80
2022/11/20 09:40:34;;;;;;;5.72;3.53;;;;;;;;;;4982304;28;20019;-80
2022/11/20 09:43:04;;;;;;;8.98;3.70;;;;;;;;;;4988474;28;20062;-79
2022/11/20 09:45:30;;;;;;;8.80;5.65;;;;;;;;;;4992736;28;20078;-79
2022/11/20 09:48:04;;;;;;;14.38;6.05;;;;;;;;;;4997286;28;20026;-81
2022/11/20 09:50:35;;;;;;;7.80;5.25;;;;;;;;;;5006431;28;20548;-81
2022/11/20 09:53:10;;;;;;;9.80;4.88;;;;;;;;;;5012064;28;20385;-80
2022/11/20 09:55:36;;;;;;;8.40;3.40;;;;;;;;;;4996460;28;20501;-80
2022/11/20 09:58:05;;;;;;;29.38;20.98;;;;;;;;;;4999650;28;20029;-80
2022/11/20 10:00:31;;;;;;;21.85;17.25;;;;;;;;;;5011940;28;20492;-81
2022/11/20 10:03:05;;;;;;;12.13;7.20;;;;;;;;;;5011870;28;20034;-79
2022/11/20 10:05:39;;;;;;;22.13;16.90;;;;;;;;;;5012003;28;20049;-79
2022/11/20 10:08:06;;;;;;;;;;;;;;;;;;5012498;28;20092;-81
2022/11/20 10:10:42;;;;;;;12.60;6.90;;;;;;;;;;5011942;28;19932;-78
2022/11/20 10:13:09;;;;;;;11.40;6.95;;;;;;;;;;5011942;28;20061;-82
2022/11/20 10:15:53;;;;;;;11.77;5.68;;;;;;;;;;5011668;28;20447;-80
2022/11/20 10:18:24;;;;;;;6.82;3.53;;;;;;;;;;5011813;28;20026;-82
2022/11/20 10:21:08;;;;;;;7.57;3.67;;;;;;;;;;5002611;28;20047;-81
2022/11/20 10:23:34;;;;;;;7.78;3.63;;;;;;;;;;4994888;28;20381;-81
2022/11/20 10:26:19;;;;;;;7.68;3.70;;;;;;;;;;5003903;28;20034;-81
2022/11/20 10:28:45;;;;;;;;;;;;;;;;;;4998441;28;20030;-80
2022/11/20 10:31:30;;;;;;;7.43;2.40;;;;;;;;;;4999760;28;19917;-81
2022/11/20 10:33:57;;;;;;;7.97;3.17;;;;;;;;;;5012633;28;20026;-80
2022/11/20 10:36:26;;;;;;;9.32;3.40;;;;;;;;;;5014957;28;20038;-81
2022/11/20 10:38:56;;;;;;;10.50;3.72;;;;;;;;;;5015223;28;20034;-80
2022/11/20 10:41:25;;;;;;;10.32;2.70;;;;;;;;;;5015092;28;20037;-80
2022/11/20 10:44:02;;;;;;;8.15;2.30;;;;;;;;;;5015200;28;20516;-80
2022/11/20 10:46:33;;;;;;;9.73;3.33;;;;;;;;;;5014900;28;20026;-80
2022/11/20 10:48:59;;;;;;;10.30;3.25;;;;;;;;;;5015087;28;20026;-81
2022/11/20 10:51:28;;;;;;;7.60;2.70;;;;;;;;;;5014806;28;20034;-81
2022/11/20 10:54:02;;;;;;;8.00;3.22;;;;;;;;;;5015147;28;20037;-81
2022/11/20 10:56:46;;;;;;;10.97;5.97;;;;;;;;;;5015064;28;20026;-81
2022/11/20 10:59:13;;;;;;;7.38;3.85;;;;;;;;;;4997204;28;20784;-81
2022/11/20 11:01:42;;;;;;;10.77;5.05;;;;;;;;;;5015104;28;20030;-81
2022/11/20 11:04:27;;;;;;;10.25;3.35;;;;;;;;;;5014892;28;20022;-80
2022/11/20 11:06:55;;;;;;;13.50;6.55;;;;;;;;;;4998976;28;20035;-81
2022/11/20 11:09:33;;;;;;;14.35;6.38;;;;;;;;;;4986017;28;20022;-81
2022/11/20 11:11:59;;;;;;;10.68;4.70;;;;;;;;;;4985805;28;20050;-80
2022/11/20 11:14:25;;;;;;;10.95;3.83;;;;;;;;;;4984361;28;20481;-81
2022/11/20 11:16:53;;;;;;;10.80;3.65;;;;;;;;;;4984567;28;20018;-81
2022/11/20 11:19:19;;;;;;;7.68;3.88;;;;;;;;;;4985924;28;20022;-81
2022/11/20 11:21:49;;;;;;;7.18;3.53;;;;;;;;;;4985060;28;20046;-81
2022/11/20 11:24:21;;;;;;;11.68;3.72;;;;;;;;;;4983945;28;20029;-81
2022/11/20 11:27:04;;;;;;;8.82;3.03;;;;;;;;;;4984065;28;20011;-81
2022/11/20 11:29:30;;;;;;;7.43;2.70;;;;;;;;;;4986668;28;20104;-80
2022/11/20 11:32:06;;;;;;;7.75;2.95;;;;;;;;;;4992307;28;20041;-82
2022/11/20 11:34:33;;;;;;;10.30;2.97;;;;;;;;;;4987695;28;20030;-81
2022/11/20 11:37:00;;;;;;;8.95;2.65;;;;;;;;;;4971564;28;20018;-80
2022/11/20 11:39:28;;;;;;;10.98;2.70;;;;;;;;;;4972211;28;20465;-81
2022/11/20 11:41:54;;;;;;;10.57;3.65;;;;;;;;;;4976985;28;20059;-80
2022/11/20 11:47:25;;;;;;;11.77;4.10;;;;;;;;;;4994736;28;20442;-82
2022/11/20 11:50:10;;;;;;;12.75;3.35;;;;;;;;;;4994092;28;20477;-80
2022/11/20 11:52:59;;;;;;;10.05;4.57;;;;;;;;;;4999021;28;20117;-81
2022/11/20 11:55:31;;;;;;;10.60;5.72;;;;;;;;;;4997677;28;20045;-81
2022/11/20 11:58:10;;;;;;;11.57;3.00;;;;;;;;;;4996538;28;20037;-81
2022/11/20 12:00:37;;;;;;;12.43;4.18;;;;;;;;;;5000391;28;20040;-82
2022/11/20 12:03:22;;;;;;;13.90;6.57;;;;;;;;;;4998874;28;20044;-81
2022/11/20 12:05:48;;;;;;;;;;;;;;;;;;5002198;28;20033;-81
2022/11/20 12:08:33;;;;;;;12.90;4.95;;;;;;;;;;5002510;28;20428;-81
2022/11/20 12:10:58;;;;;;;;;;;;;;;;;;4994256;28;20026;-81
2022/11/20 12:13:35;;;;;;;12.65;7.97;;;;;;;;;;4999562;28;19921;-81
2022/11/20 12:16:02;;;;;;;11.48;5.53;;;;;;;;;;4995373;28;20097;-81
2022/11/20 12:18:29;;;;;;;17.15;8.65;;;;;;;;;;4994294;28;20026;-81
2022/11/20 12:20:58;;;;;;;10.45;5.75;;;;;;;;;;4992759;28;20105;-81
2022/11/20 12:23:32;;;;;;;9.63;4.88;;;;;;;;;;4957042;28;20030;-81
2022/11/20 12:25:59;;;;;;;13.32;6.90;;;;;;;;;;4974293;28;20035;-81
2022/11/20 12:28:36;;;;;;;14.75;5.53;;;;;;;;;;4974189;28;20019;-81
2022/11/20 12:31:05;;;;;;;9.45;4.45;;;;;;;;;;4956695;28;20509;-81
2022/11/20 12:33:31;;;;;;;13.55;4.47;;;;;;;;;;4974236;28;20068;-81
2022/11/20 12:36:18;;;;;;;10.65;5.32;;;;;;;;;;4974189;28;20023;-81
2022/11/20 12:39:04;;;;;;;11.30;4.65;;;;;;;;;;4956749;28;20363;-81
2022/11/20 12:47:39;;;;;;;13.07;4.97;;;;;;;;;;4974323;28;20065;-81
2022/11/20 12:50:24;;;;;;;18.60;9.20;;;;;;;;;;4973925;28;20041;-81
2022/11/20 12:52:50;;;;;;;;;;;;;;;;;;4973602;28;20030;-82
2022/11/20 12:55:16;;;;;;;14.13;4.72;;;;;;;;;;4973875;28;20770;-81
2022/11/20 12:57:42;;;;;;;13.90;5.45;;;;;;;;;;4973725;28;20021;-81
2022/11/20 13:00:15;;;;;;;25.33;15.43;;;;;;;;;;4973520;28;20034;-81
2022/11/20 13:02:41;;;;;;;39.00;29.13;;;;;;;;;;4973636;28;20034;-81
2022/11/20 13:05:25;;;;;;;15.48;6.80;;;;;;;;;;4973716;28;20054;-82
2022/11/20 13:07:52;;;;;;;14.50;5.25;;;;;;;;;;4973675;28;20030;-82
2022/11/20 13:10:30;;;;;;;18.48;6.38;;;;;;;;;;4973388;28;20030;-82
2022/11/20 13:13:04;;;;;;;14.25;6.03;;;;;;;;;;4974115;28;20030;-81
2022/11/20 13:15:37;;;;;;;17.23;7.13;;;;;;;;;;4973647;28;20038;-82
2022/11/20 13:18:04;;;;;;;15.35;5.07;;;;;;;;;;4973513;28;20027;-82
2022/11/20 13:20:31;;;;;;;11.55;4.65;;;;;;;;;;4973531;28;20054;-83
2022/11/20 13:22:58;;;;;;;12.65;4.50;;;;;;;;;;4973414;28;20023;-82
2022/11/20 13:25:25;;;;;;;13.38;5.15;;;;;;;;;;4973651;28;20382;-82
2022/11/20 13:27:52;;;;;;;23.13;6.10;;;;;;;;;;4956014;28;20390;-82
2022/11/20 13:30:25;;;;;;;17.95;5.00;;;;;;;;;;4956520;28;20023;-82
2022/11/20 13:32:53;;;;;;;16.10;4.72;;;;;;;;;;4973286;28;20027;-81
2022/11/20 13:35:38;;;;;;;11.30;4.10;;;;;;;;;;4973504;28;20089;-83
2022/11/20 13:38:05;;;;;;;17.45;5.43;;;;;;;;;;4973529;28;20034;-84
2022/11/20 13:40:32;;;;;;;14.90;4.15;;;;;;;;;;4973454;28;20525;-82
2022/11/20 13:43:01;;;;;;;19.90;11.40;;;;;;;;;;4973407;28;20019;-82
2022/11/20 13:45:28;;;;;;;18.80;11.98;;;;;;;;;;4973269;28;20486;-82
2022/11/20 13:47:54;;;;;;;17.50;5.85;;;;;;;;;;4973265;28;20023;-83
2022/11/20 13:50:24;;;;;;;16.65;4.55;;;;;;;;;;4973367;28;20023;-83
2022/11/20 13:52:53;;;;;;;18.65;5.45;;;;;;;;;;4973221;28;20046;-81
2022/11/20 13:55:22;;;;;;;15.55;4.90;;;;;;;;;;4973337;28;20023;-82
2022/11/20 13:58:08;;;;;;;15.30;4.82;;;;;;;;;;4973235;28;20031;-81
2022/11/20 14:00:43;;;;;;;17.67;6.85;;;;;;;;;;4972943;28;20039;-82
2022/11/20 14:03:14;;;;;;;17.13;6.18;;;;;;;;;;4974448;28;20037;-81
2022/11/20 14:05:48;;;;;;;20.38;9.07;;;;;;;;;;4976945;28;20069;-82
2022/11/20 14:08:23;;;;;;;23.15;10.60;;;;;;;;;;4976774;28;20027;-81
2022/11/20 14:10:49;;;;;;;22.70;12.18;;;;;;;;;;4976722;28;20022;-81
2022/11/20 14:13:19;;;;;;;10.93;5.35;;;;;;;;;;4976618;28;20055;-81
2022/11/20 14:15:46;;;;;;;20.92;5.22;;;;;;;;;;4976658;28;20101;-82
2022/11/20 14:18:19;;;;;;;17.45;7.18;;;;;;;;;;4976599;28;20494;-83
2022/11/20 14:20:46;;;;;;;34.27;22.00;;;;;;;;;;4976262;28;20586;-80
2022/11/20 14:23:12;;;;;;;18.63;8.88;;;;;;;;;;4959233;28;20272;-82
2022/11/20 14:25:42;;;;;;;14.27;6.20;;;;;;;;;;4976599;28;20023;-80
2022/11/20 14:28:11;;;;;;;27.00;15.25;;;;;;;;;;4976570;28;20030;-81
2022/11/20 14:30:37;;;;;;;19.67;10.73;;;;;;;;;;4976499;28;20022;-81
2022/11/20 14:33:04;;;;;;;56.88;40.17;;;;;;;;;;4976179;28;20126;-81
2022/11/20 14:35:31;;;;;;;37.72;22.70;;;;;;;;;;4976534;28;20027;-83
2022/11/20 14:37:58;;;;;;;32.03;14.32;;;;;;;;;;4976083;28;20035;-82
2022/11/20 14:40:24;;;;;;;33.53;22.83;;;;;;;;;;4976293;28;20102;-79
2022/11/20 14:42:50;;;;;;;11.70;6.15;;;;;;;;;;4975977;28;20481;-80
2022/11/20 14:45:17;;;;;;;7.50;4.05;;;;;;;;;;4976102;28;20023;-81
2022/11/20 14:47:43;;;;;;;6.32;3.65;;;;;;;;;;4975988;28;20022;-82
2022/11/20 14:50:18;;;;;;;7.50;3.78;;;;;;;;;;4976167;28;20034;-82
2022/11/20 14:53:03;;;;;;;8.10;5.30;;;;;;;;;;4982259;28;20037;-81
2022/11/20 14:55:29;;;;;;;;;;;;;;;;;;4986052;28;20113;-84
2022/11/20 14:57:56;;;;;;;3.03;0.98;;;;;;;;;;4984188;28;20016;-80
2022/11/20 15:00:22;;;;;;;4.82;2.50;;;;;;;;;;4985470;28;20014;-82
2022/11/20 15:02:50;;;;;;;5.15;3.75;;;;;;;;;;4985483;28;20031;-81
2022/11/20 15:05:17;;;;;;;5.43;2.72;;;;;;;;;;4983825;28;20359;-84